Time;durP1;ratioP1;P1;durP2;ratioP2;P2;SDS_P1;SDS_P2;PMS_P1;PMS_P2;Temp;Humidity;BMP_temperature;BMP_pressure;BME280_temperature;BME280_humidity;BME280_pressure;Samples;Min_cycle;Max_cycle;Signal;HPM_P1;HPM_P2
2022/01/10 00:01:50;;;;;;;1999.90;999.90;;;;;;;;;;4993141;28;20535;-71
2022/01/10 00:04:35;;;;;;;1999.90;999.90;;;;;;;;;;4991642;28;20472;-71
2022/01/10 00:07:19;;;;;;;1999.90;999.90;;;;;;;;;;4990876;28;20486;-70
2022/01/10 00:10:05;;;;;;;1999.90;999.90;;;;;;;;;;4989647;28;20346;-71
2022/01/10 00:12:50;;;;;;;1999.90;999.90;;;;;;;;;;4986757;28;20957;-71
2022/01/10 00:15:35;;;;;;;1999.90;999.90;;;;;;;;;;4990014;28;20872;-70
2022/01/10 00:18:21;;;;;;;1999.90;999.90;;;;;;;;;;4989056;28;20483;-70
2022/01/10 00:21:06;;;;;;;1999.90;999.90;;;;;;;;;;4979704;28;20485;-71
2022/01/10 00:23:51;;;;;;;1999.90;999.90;;;;;;;;;;4966559;28;20425;-72
2022/01/10 00:26:36;;;;;;;1999.90;999.90;;;;;;;;;;4973070;28;20845;-72
2022/01/10 00:29:21;;;;;;;1999.90;999.90;;;;;;;;;;4973250;28;20219;-71
2022/01/10 00:32:06;;;;;;;1999.90;999.90;;;;;;;;;;4969303;28;20472;-71
2022/01/10 00:34:52;;;;;;;1999.90;999.90;;;;;;;;;;4969275;28;20524;-71
2022/01/10 00:37:39;;;;;;;1999.90;999.90;;;;;;;;;;4973803;28;20472;-71
2022/01/10 00:40:24;;;;;;;1999.90;999.90;;;;;;;;;;4965075;28;20472;-71
2022/01/10 00:43:17;;;;;;;1999.90;999.90;;;;;;;;;;4969380;28;20418;-71
2022/01/10 00:46:02;;;;;;;1999.90;999.90;;;;;;;;;;4968326;28;20417;-72
2022/01/10 00:48:47;;;;;;;1999.90;999.90;;;;;;;;;;4954668;28;20441;-73
2022/01/10 00:51:34;;;;;;;1999.90;999.90;;;;;;;;;;4965544;28;21074;-72
2022/01/10 00:54:18;;;;;;;1999.90;999.90;;;;;;;;;;4965466;28;20453;-71
2022/01/10 00:57:04;;;;;;;1999.90;999.90;;;;;;;;;;4967787;28;20445;-70
2022/01/10 00:59:49;;;;;;;1999.90;999.90;;;;;;;;;;4964493;28;20215;-71
2022/01/10 01:02:34;;;;;;;1999.90;999.90;;;;;;;;;;4973899;28;21008;-71
2022/01/10 01:05:20;;;;;;;1999.90;999.90;;;;;;;;;;4972710;28;20472;-71
2022/01/10 01:08:08;;;;;;;1999.90;999.90;;;;;;;;;;4965944;28;20453;-71
2022/01/10 01:14:08;;;;;;;1999.90;999.90;;;;;;;;;;4958755;28;20493;-71
2022/01/10 01:17:09;;;;;;;1999.90;999.90;;;;;;;;;;4966792;28;20424;-71
2022/01/10 01:20:08;;;;;;;1999.90;999.90;;;;;;;;;;4963978;28;20565;-71
2022/01/10 01:25:58;;;;;;;1999.90;999.90;;;;;;;;;;4966872;28;20440;-72
2022/01/10 01:28:43;;;;;;;1999.90;999.90;;;;;;;;;;4969116;28;20534;-71
2022/01/10 01:31:28;;;;;;;1999.90;999.90;;;;;;;;;;4971048;28;20527;-71
2022/01/10 01:34:14;;;;;;;1999.90;999.90;;;;;;;;;;4964448;28;20971;-71
2022/01/10 01:37:00;;;;;;;1999.90;999.90;;;;;;;;;;4962386;28;20830;-71
2022/01/10 01:39:45;;;;;;;1999.90;999.90;;;;;;;;;;4961211;28;20440;-71
2022/01/10 01:42:35;;;;;;;1999.90;999.90;;;;;;;;;;4963923;28;20469;-71
2022/01/10 01:45:20;;;;;;;1999.90;999.90;;;;;;;;;;4969768;28;20416;-71
2022/01/10 01:48:05;;;;;;;1999.90;999.90;;;;;;;;;;4956620;28;20449;-71
2022/01/10 01:50:50;;;;;;;1999.90;999.90;;;;;;;;;;4965829;28;20517;-71
2022/01/10 01:53:36;;;;;;;1999.90;999.90;;;;;;;;;;4963051;28;20521;-71
2022/01/10 01:56:21;;;;;;;1999.90;999.90;;;;;;;;;;4972980;28;20602;-71
2022/01/10 01:59:09;;;;;;;1999.90;999.90;;;;;;;;;;4962005;28;20494;-71
2022/01/10 02:01:54;;;;;;;1999.90;999.90;;;;;;;;;;4956852;28;20472;-71
2022/01/10 02:04:39;;;;;;;1999.90;999.90;;;;;;;;;;4972150;28;20504;-71
2022/01/10 02:07:24;;;;;;;1999.90;999.90;;;;;;;;;;4967338;28;21088;-71
2022/01/10 02:10:09;;;;;;;1999.90;999.90;;;;;;;;;;4972847;28;20450;-71
2022/01/10 02:12:54;;;;;;;1999.90;999.90;;;;;;;;;;4967510;28;20504;-71
2022/01/10 02:15:47;;;;;;;1999.90;999.90;;;;;;;;;;4972092;28;20796;-71
2022/01/10 02:18:33;;;;;;;1999.90;999.90;;;;;;;;;;4971359;28;20494;-71
2022/01/10 02:21:19;;;;;;;1999.90;999.90;;;;;;;;;;4964029;28;20454;-71
2022/01/10 02:24:04;;;;;;;1999.90;999.90;;;;;;;;;;4981109;28;20213;-71
2022/01/10 02:26:50;;;;;;;1999.90;999.90;;;;;;;;;;4973433;28;20463;-71
2022/01/10 02:29:36;;;;;;;1999.90;999.90;;;;;;;;;;4984757;28;20421;-71
2022/01/10 02:32:21;;;;;;;1999.90;999.90;;;;;;;;;;4993291;28;20477;-71
2022/01/10 02:35:17;;;;;;;1999.90;999.90;;;;;;;;;;4990938;28;20510;-71
2022/01/10 02:38:04;;;;;;;1999.90;999.90;;;;;;;;;;4984476;28;20460;-71
2022/01/10 02:40:51;;;;;;;1999.90;999.90;;;;;;;;;;4957077;28;20441;-71
2022/01/10 02:43:35;;;;;;;1999.90;999.90;;;;;;;;;;4984899;28;20424;-71
2022/01/10 02:46:20;;;;;;;1999.90;999.90;;;;;;;;;;4990671;28;20518;-71
2022/01/10 02:49:10;;;;;;;1999.90;999.90;;;;;;;;;;4978726;28;20425;-71
2022/01/10 02:51:57;;;;;;;1999.90;999.90;;;;;;;;;;4979700;28;20549;-71
2022/01/10 02:54:44;;;;;;;1999.90;999.90;;;;;;;;;;4983615;28;20468;-71
2022/01/10 02:57:29;;;;;;;1999.90;999.90;;;;;;;;;;4979573;28;20466;-71
2022/01/10 03:00:15;;;;;;;1999.90;999.90;;;;;;;;;;4965383;28;20448;-71
2022/01/10 03:03:06;;;;;;;1999.90;999.90;;;;;;;;;;4979379;28;20460;-71
2022/01/10 03:05:51;;;;;;;1999.90;999.90;;;;;;;;;;4956770;29;20409;-70
2022/01/10 03:08:36;;;;;;;1999.90;999.90;;;;;;;;;;4982937;28;20431;-71
2022/01/10 03:11:22;;;;;;;1999.90;999.90;;;;;;;;;;4974790;28;20485;-71
2022/01/10 03:14:07;;;;;;;1999.90;999.90;;;;;;;;;;4978424;28;20421;-70
2022/01/10 03:16:52;;;;;;;1999.90;999.90;;;;;;;;;;4978956;28;20459;-71
2022/01/10 03:19:37;;;;;;;1999.90;999.90;;;;;;;;;;4985974;28;20540;-73
2022/01/10 03:22:22;;;;;;;1999.90;999.90;;;;;;;;;;4987348;28;20253;-72
2022/01/10 03:25:07;;;;;;;1999.90;999.90;;;;;;;;;;4982894;28;20443;-73
2022/01/10 03:27:53;;;;;;;1999.90;999.90;;;;;;;;;;4981969;28;20448;-72
2022/01/10 03:30:39;;;;;;;1999.90;999.90;;;;;;;;;;4982450;28;20435;-73
2022/01/10 03:33:23;;;;;;;1999.90;999.90;;;;;;;;;;4981840;28;20432;-72
2022/01/10 03:36:09;;;;;;;1999.90;999.90;;;;;;;;;;4980950;28;20609;-72
2022/01/10 03:38:54;;;;;;;1999.90;999.90;;;;;;;;;;4976192;28;20462;-73
2022/01/10 03:41:39;;;;;;;1999.90;999.90;;;;;;;;;;4975516;28;20470;-72
2022/01/10 03:44:25;;;;;;;1999.90;999.90;;;;;;;;;;4986482;28;20418;-72
2022/01/10 03:47:10;;;;;;;1999.90;999.90;;;;;;;;;;4984159;28;20210;-72
2022/01/10 03:49:56;;;;;;;1999.90;999.90;;;;;;;;;;4976027;28;20502;-73
2022/01/10 03:52:42;;;;;;;1999.90;999.90;;;;;;;;;;4985580;28;20880;-72
2022/01/10 03:55:27;;;;;;;1999.90;999.90;;;;;;;;;;4980249;28;20463;-72
2022/01/10 03:58:12;;;;;;;1999.90;999.90;;;;;;;;;;4985307;28;20469;-72
2022/01/10 04:00:59;;;;;;;1999.90;999.90;;;;;;;;;;4971959;28;20468;-73
2022/01/10 04:03:45;;;;;;;1999.90;999.90;;;;;;;;;;4986217;28;20427;-72
2022/01/10 04:06:30;;;;;;;1999.90;999.90;;;;;;;;;;4985649;28;20448;-72
2022/01/10 04:09:17;;;;;;;1999.90;999.90;;;;;;;;;;4978745;28;20420;-72
2022/01/10 04:12:02;;;;;;;1999.90;999.90;;;;;;;;;;4978013;28;20567;-72
2022/01/10 04:14:47;;;;;;;1999.90;999.90;;;;;;;;;;4978514;28;20488;-72
2022/01/10 04:17:33;;;;;;;1999.90;999.90;;;;;;;;;;4983920;28;20939;-72
2022/01/10 04:20:18;;;;;;;1999.90;999.90;;;;;;;;;;4991318;28;20420;-72
2022/01/10 04:23:03;;;;;;;1999.90;999.90;;;;;;;;;;4967857;28;20522;-72
2022/01/10 04:25:48;;;;;;;1999.90;999.90;;;;;;;;;;4962145;28;20545;-72
2022/01/10 04:28:33;;;;;;;1999.90;999.90;;;;;;;;;;4963654;28;20448;-72
2022/01/10 04:31:19;;;;;;;1999.90;999.90;;;;;;;;;;4967250;28;20524;-72
2022/01/10 04:34:05;;;;;;;1999.90;999.90;;;;;;;;;;4968864;28;20817;-72
2022/01/10 04:36:50;;;;;;;1999.90;999.90;;;;;;;;;;4971267;28;20464;-72
2022/01/10 04:39:35;;;;;;;1999.90;999.90;;;;;;;;;;4973778;28;20904;-72
2022/01/10 04:42:20;;;;;;;1999.90;999.90;;;;;;;;;;4965614;28;20238;-72
2022/01/10 04:45:05;;;;;;;1999.90;999.90;;;;;;;;;;4955552;28;20468;-72
2022/01/10 04:47:51;;;;;;;1999.90;999.90;;;;;;;;;;4961696;28;20452;-72
2022/01/10 04:53:36;;;;;;;1999.90;999.90;;;;;;;;;;4971292;28;20510;-72
2022/01/10 04:56:21;;;;;;;1999.90;999.90;;;;;;;;;;4969538;28;20457;-72
2022/01/10 04:59:05;;;;;;;1999.90;999.90;;;;;;;;;;4973497;28;20478;-72
2022/01/10 05:01:50;;;;;;;1999.90;999.90;;;;;;;;;;4964937;28;20797;-72
2022/01/10 05:04:35;;;;;;;1999.90;999.90;;;;;;;;;;4969186;28;20441;-72
2022/01/10 05:07:21;;;;;;;1999.90;999.90;;;;;;;;;;4973424;28;20211;-72
2022/01/10 05:10:06;;;;;;;1999.90;999.90;;;;;;;;;;4954686;29;20934;-72
2022/01/10 05:12:52;;;;;;;1999.90;999.90;;;;;;;;;;4969316;28;20438;-72
2022/01/10 05:15:37;;;;;;;1999.90;999.90;;;;;;;;;;4972305;28;20796;-72
2022/01/10 05:18:23;;;;;;;1999.90;999.90;;;;;;;;;;4964457;28;20329;-72
2022/01/10 05:21:08;;;;;;;1999.90;999.90;;;;;;;;;;4954248;28;20232;-71
2022/01/10 05:23:55;;;;;;;1999.90;999.90;;;;;;;;;;4954428;29;20205;-72
2022/01/10 05:26:42;;;;;;;1999.90;999.90;;;;;;;;;;4954225;29;20204;-72
2022/01/10 05:29:27;;;;;;;1999.90;999.90;;;;;;;;;;4953980;28;20342;-72
2022/01/10 05:32:12;;;;;;;1999.90;999.90;;;;;;;;;;4973211;28;20246;-72
2022/01/10 05:34:57;;;;;;;1999.90;999.90;;;;;;;;;;4972698;28;20215;-72
2022/01/10 05:37:42;;;;;;;1999.90;999.90;;;;;;;;;;4970636;28;20726;-72
2022/01/10 05:40:28;;;;;;;1999.90;999.90;;;;;;;;;;4972827;28;20228;-72
2022/01/10 05:43:13;;;;;;;1999.90;999.90;;;;;;;;;;4972999;28;20213;-72
2022/01/10 05:45:58;;;;;;;1999.90;999.90;;;;;;;;;;4973076;28;20430;-72
2022/01/10 05:48:47;;;;;;;1999.90;999.90;;;;;;;;;;4972757;28;20200;-72
2022/01/10 05:51:34;;;;;;;1999.90;999.90;;;;;;;;;;4973151;28;20301;-71
2022/01/10 05:54:19;;;;;;;1999.90;999.90;;;;;;;;;;4973224;28;20707;-72
2022/01/10 05:57:06;;;;;;;1999.90;999.90;;;;;;;;;;4972833;28;20211;-72
2022/01/10 05:59:52;;;;;;;1999.90;999.90;;;;;;;;;;4972700;28;20470;-72
2022/01/10 06:02:36;;;;;;;1999.90;999.90;;;;;;;;;;4973055;28;20227;-72
2022/01/10 06:05:21;;;;;;;1999.90;999.90;;;;;;;;;;4970382;28;20275;-72
2022/01/10 06:08:08;;;;;;;1999.90;999.90;;;;;;;;;;4967306;28;20204;-72
2022/01/10 06:10:53;;;;;;;1999.90;999.90;;;;;;;;;;4970711;28;20713;-73
2022/01/10 06:13:39;;;;;;;1999.90;999.90;;;;;;;;;;4970679;28;20220;-72
2022/01/10 06:16:24;;;;;;;1999.90;999.90;;;;;;;;;;4972924;28;20211;-72
2022/01/10 06:19:09;;;;;;;1999.90;999.90;;;;;;;;;;4971010;28;20222;-72
2022/01/10 06:21:54;;;;;;;1999.90;999.90;;;;;;;;;;4985417;28;20230;-72
2022/01/10 06:24:39;;;;;;;1999.90;999.90;;;;;;;;;;5011187;28;20209;-72
2022/01/10 06:27:24;;;;;;;1999.90;999.90;;;;;;;;;;5000154;28;20338;-72
2022/01/10 06:30:11;;;;;;;1999.90;999.90;;;;;;;;;;4987388;28;20278;-72
2022/01/10 06:32:56;;;;;;;1999.90;999.90;;;;;;;;;;4996078;28;20594;-72
2022/01/10 06:35:41;;;;;;;1999.90;999.90;;;;;;;;;;5010599;28;20210;-72
2022/01/10 06:38:26;;;;;;;1999.90;999.90;;;;;;;;;;5010413;28;20226;-72
2022/01/10 06:41:11;;;;;;;1999.90;999.90;;;;;;;;;;4993366;28;20397;-72
2022/01/10 06:43:55;;;;;;;1999.90;999.90;;;;;;;;;;4983155;28;20343;-72
2022/01/10 06:46:42;;;;;;;1999.90;999.90;;;;;;;;;;4991680;28;20704;-72
2022/01/10 06:49:27;;;;;;;1999.90;999.90;;;;;;;;;;4988378;28;20263;-72
2022/01/10 06:52:11;;;;;;;1999.90;999.90;;;;;;;;;;4985597;28;20235;-72
2022/01/10 06:54:56;;;;;;;1999.90;999.90;;;;;;;;;;4990832;28;20211;-72
2022/01/10 06:57:41;;;;;;;1999.90;999.90;;;;;;;;;;4991436;28;20206;-72
2022/01/10 07:00:26;;;;;;;1999.90;999.90;;;;;;;;;;5001274;28;20225;-72
2022/01/10 07:03:13;;;;;;;1999.90;999.90;;;;;;;;;;5009999;28;20226;-72
2022/01/10 07:05:58;;;;;;;1999.90;999.90;;;;;;;;;;5006813;28;20215;-72
2022/01/10 07:08:43;;;;;;;1999.90;999.90;;;;;;;;;;4994977;28;20215;-72
2022/01/10 07:11:28;;;;;;;1999.90;999.90;;;;;;;;;;4991848;28;20309;-72
2022/01/10 07:14:14;;;;;;;1999.90;999.90;;;;;;;;;;4985866;28;20698;-71
2022/01/10 07:16:59;;;;;;;1999.90;999.90;;;;;;;;;;4987912;28;20214;-72
2022/01/10 07:19:45;;;;;;;1999.90;999.90;;;;;;;;;;4992657;28;20277;-72
2022/01/10 07:22:30;;;;;;;1999.90;999.90;;;;;;;;;;4985673;28;20239;-72
2022/01/10 07:25:15;;;;;;;1999.90;999.90;;;;;;;;;;4981841;28;20334;-72
2022/01/10 07:28:00;;;;;;;1999.90;999.90;;;;;;;;;;4978217;28;20703;-72
2022/01/10 07:30:46;;;;;;;1999.90;999.90;;;;;;;;;;4980684;28;20246;-72
2022/01/10 07:33:31;;;;;;;1999.90;999.90;;;;;;;;;;4989326;28;20690;-72
2022/01/10 07:36:18;;;;;;;1999.90;999.90;;;;;;;;;;4976766;28;20215;-70
2022/01/10 07:39:03;;;;;;;1999.90;999.90;;;;;;;;;;4968735;28;20434;-71
2022/01/10 07:41:48;;;;;;;1999.90;999.90;;;;;;;;;;4974009;28;20238;-69
2022/01/10 07:44:34;;;;;;;1999.90;999.90;;;;;;;;;;4973802;28;20286;-72
2022/01/10 07:47:19;;;;;;;1999.90;999.90;;;;;;;;;;4955396;28;20215;-72
2022/01/10 07:50:05;;;;;;;1999.90;999.90;;;;;;;;;;4955204;28;20284;-72
2022/01/10 07:52:51;;;;;;;1999.90;999.90;;;;;;;;;;4955323;28;20671;-72
2022/01/10 07:55:37;;;;;;;1999.90;999.90;;;;;;;;;;4955429;28;20215;-72
2022/01/10 07:58:22;;;;;;;1999.90;999.90;;;;;;;;;;4971214;28;20311;-72
2022/01/10 08:01:07;;;;;;;1999.90;999.90;;;;;;;;;;4971270;28;20359;-72
2022/01/10 08:03:52;;;;;;;1999.90;999.90;;;;;;;;;;4961029;28;20236;-72
2022/01/10 08:06:37;;;;;;;1999.90;999.90;;;;;;;;;;4956201;28;20224;-72
2022/01/10 08:09:25;;;;;;;1999.90;999.90;;;;;;;;;;4955419;28;20957;-71
2022/01/10 08:12:10;;;;;;;1999.90;999.90;;;;;;;;;;4971835;28;20238;-72
2022/01/10 08:14:55;;;;;;;1999.90;999.90;;;;;;;;;;4975106;28;20609;-72
2022/01/10 08:17:40;;;;;;;1999.90;999.90;;;;;;;;;;4974829;28;20204;-72
2022/01/10 08:20:25;;;;;;;1999.90;999.90;;;;;;;;;;4959949;28;20818;-72
2022/01/10 08:23:10;;;;;;;1999.90;999.90;;;;;;;;;;4970662;28;20212;-72
2022/01/10 08:25:57;;;;;;;1999.90;999.90;;;;;;;;;;4972839;28;20291;-73
2022/01/10 08:28:42;;;;;;;1999.90;999.90;;;;;;;;;;4974107;28;20210;-72
2022/01/10 08:31:27;;;;;;;1999.90;999.90;;;;;;;;;;4966259;28;20587;-73
2022/01/10 08:34:12;;;;;;;1999.90;999.90;;;;;;;;;;4955226;28;20581;-72
2022/01/10 08:36:57;;;;;;;1999.90;999.90;;;;;;;;;;4966790;28;20248;-72
2022/01/10 08:39:42;;;;;;;1999.90;999.90;;;;;;;;;;4977131;28;20598;-71
2022/01/10 08:42:28;;;;;;;1999.90;999.90;;;;;;;;;;4980731;28;20227;-71
2022/01/10 08:45:13;;;;;;;1999.90;999.90;;;;;;;;;;4985542;28;20367;-72
2022/01/10 08:47:58;;;;;;;1999.90;999.90;;;;;;;;;;4976841;28;20231;-72
2022/01/10 08:50:43;;;;;;;1999.90;999.90;;;;;;;;;;4966950;28;20596;-72
2022/01/10 08:53:28;;;;;;;1999.90;999.90;;;;;;;;;;4969808;28;20212;-70
2022/01/10 08:56:13;;;;;;;1999.90;999.90;;;;;;;;;;4984585;28;20725;-72
2022/01/10 08:59:00;;;;;;;1999.90;999.90;;;;;;;;;;4969222;28;20212;-73
2022/01/10 09:01:46;;;;;;;1999.90;999.90;;;;;;;;;;4954603;29;20842;-73
2022/01/10 09:04:31;;;;;;;1999.90;999.90;;;;;;;;;;4967879;28;20710;-72
2022/01/10 09:07:16;;;;;;;1999.90;999.90;;;;;;;;;;4968284;28;20256;-73
2022/01/10 09:10:01;;;;;;;1999.90;999.90;;;;;;;;;;4972818;28;20671;-72
2022/01/10 09:12:46;;;;;;;1999.90;999.90;;;;;;;;;;4964689;28;20804;-72
2022/01/10 09:15:32;;;;;;;1999.90;999.90;;;;;;;;;;4966647;28;20658;-73
2022/01/10 09:18:18;;;;;;;1999.90;999.90;;;;;;;;;;4972774;28;20207;-72
2022/01/10 09:21:03;;;;;;;1999.90;999.90;;;;;;;;;;4960618;28;20603;-73
2022/01/10 09:23:48;;;;;;;1999.90;999.90;;;;;;;;;;4973609;28;20223;-74
2022/01/10 09:26:33;;;;;;;1999.90;999.90;;;;;;;;;;4971823;28;20547;-72
2022/01/10 09:29:18;;;;;;;1999.90;999.90;;;;;;;;;;4966898;28;20347;-72
2022/01/10 09:32:05;;;;;;;1999.90;999.90;;;;;;;;;;4967813;28;20729;-73
2022/01/10 09:34:50;;;;;;;1999.90;999.90;;;;;;;;;;4973270;28;20220;-73
2022/01/10 09:37:35;;;;;;;1999.90;999.90;;;;;;;;;;4970640;28;20208;-73
2022/01/10 09:40:20;;;;;;;1999.90;999.90;;;;;;;;;;4969534;28;20231;-73
2022/01/10 09:43:05;;;;;;;1999.90;999.90;;;;;;;;;;4973400;28;20583;-73
2022/01/10 09:45:53;;;;;;;1999.90;999.90;;;;;;;;;;4964328;28;20216;-72
2022/01/10 09:48:39;;;;;;;1999.90;999.90;;;;;;;;;;4971801;28;20228;-73
2022/01/10 09:51:26;;;;;;;1999.90;999.90;;;;;;;;;;4969663;28;20223;-72
2022/01/10 09:54:12;;;;;;;1999.90;999.90;;;;;;;;;;4962306;28;20217;-73
2022/01/10 09:56:57;;;;;;;1999.90;999.90;;;;;;;;;;4966719;28;20216;-72
2022/01/10 09:59:43;;;;;;;1999.90;999.90;;;;;;;;;;4972491;28;20718;-73
2022/01/10 10:02:30;;;;;;;1999.90;999.90;;;;;;;;;;4973042;28;20594;-72
2022/01/10 10:05:17;;;;;;;1999.90;999.90;;;;;;;;;;4962187;28;20215;-72
2022/01/10 10:08:03;;;;;;;1999.90;999.90;;;;;;;;;;4971492;28;20675;-72
2022/01/10 10:10:49;;;;;;;1999.90;999.90;;;;;;;;;;4965182;28;20231;-72
2022/01/10 10:13:36;;;;;;;1999.90;999.90;;;;;;;;;;4972811;28;20578;-72
2022/01/10 10:16:21;;;;;;;1999.90;999.90;;;;;;;;;;4972892;28;20583;-72
2022/01/10 10:19:07;;;;;;;1999.90;999.90;;;;;;;;;;4972705;28;20219;-72
2022/01/10 10:21:54;;;;;;;1999.90;999.90;;;;;;;;;;4982810;28;20238;-72
2022/01/10 10:24:39;;;;;;;1999.90;999.90;;;;;;;;;;4991889;28;20414;-72
2022/01/10 10:27:25;;;;;;;1999.90;999.90;;;;;;;;;;4992215;28;20207;-72
2022/01/10 10:30:11;;;;;;;1999.90;999.90;;;;;;;;;;4991729;28;20338;-72
2022/01/10 10:33:10;;;;;;;1999.90;999.90;;;;;;;;;;4973019;28;20263;-72
2022/01/10 10:35:57;;;;;;;1999.90;999.90;;;;;;;;;;4972848;28;20360;-73
2022/01/10 10:38:44;;;;;;;1999.90;999.90;;;;;;;;;;4989539;28;20215;-74
2022/01/10 10:41:29;;;;;;;1999.90;999.90;;;;;;;;;;4992247;28;20231;-72
2022/01/10 10:44:14;;;;;;;1999.90;999.90;;;;;;;;;;4996229;28;20188;-72
2022/01/10 10:47:00;;;;;;;1999.90;999.90;;;;;;;;;;4995796;28;20215;-72
2022/01/10 10:49:47;;;;;;;1999.90;999.90;;;;;;;;;;4996012;28;20238;-70
2022/01/10 10:52:33;;;;;;;1999.90;999.90;;;;;;;;;;4990214;28;20432;-73
2022/01/10 10:55:19;;;;;;;1999.90;999.90;;;;;;;;;;4992036;28;20227;-72
2022/01/10 10:58:04;;;;;;;1999.90;999.90;;;;;;;;;;4997605;28;20216;-72
2022/01/10 11:00:49;;;;;;;1999.90;999.90;;;;;;;;;;4981995;28;20309;-73
2022/01/10 11:03:34;;;;;;;1999.90;999.90;;;;;;;;;;4995705;28;20697;-72
2022/01/10 11:06:19;;;;;;;1999.90;999.90;;;;;;;;;;4994367;28;20701;-72
2022/01/10 11:09:06;;;;;;;1999.90;999.90;;;;;;;;;;4988728;28;20207;-72
2022/01/10 11:11:52;;;;;;;1999.90;999.90;;;;;;;;;;4991066;28;20705;-73
2022/01/10 11:14:37;;;;;;;1999.90;999.90;;;;;;;;;;4976190;28;20207;-73
2022/01/10 11:17:22;;;;;;;1999.90;999.90;;;;;;;;;;5006636;28;20203;-71
2022/01/10 11:20:09;;;;;;;1999.90;999.90;;;;;;;;;;4994650;28;20596;-71
2022/01/10 11:22:55;;;;;;;1999.90;999.90;;;;;;;;;;4988389;28;20219;-72
2022/01/10 11:25:42;;;;;;;1999.90;999.90;;;;;;;;;;4993129;28;20215;-71
2022/01/10 11:28:29;;;;;;;1999.90;999.90;;;;;;;;;;4993919;28;20239;-72
2022/01/10 11:31:18;;;;;;;1999.90;999.90;;;;;;;;;;4992600;28;20319;-72
2022/01/10 11:34:03;;;;;;;1999.90;999.90;;;;;;;;;;4994991;28;20211;-72
2022/01/10 11:36:50;;;;;;;1999.90;999.90;;;;;;;;;;4994289;28;20343;-72
2022/01/10 11:39:35;;;;;;;1999.90;999.90;;;;;;;;;;4992511;28;20258;-72
2022/01/10 11:42:22;;;;;;;1999.90;999.90;;;;;;;;;;4994490;28;20238;-72
2022/01/10 11:45:09;;;;;;;1999.90;999.90;;;;;;;;;;4993628;28;20230;-72
2022/01/10 11:48:15;;;;;;;1999.90;999.90;;;;;;;;;;4978601;28;20693;-71
2022/01/10 11:51:00;;;;;;;1999.90;999.90;;;;;;;;;;4993780;28;20493;-73
2022/01/10 11:53:46;;;;;;;1999.90;999.90;;;;;;;;;;4991349;28;20207;-71
2022/01/10 11:56:32;;;;;;;1999.90;999.90;;;;;;;;;;4993922;28;20254;-70
2022/01/10 11:59:18;;;;;;;1999.90;999.90;;;;;;;;;;4992432;28;20262;-72
2022/01/10 12:02:10;;;;;;;1999.90;999.90;;;;;;;;;;4988570;28;20310;-71
2022/01/10 12:04:57;;;;;;;1999.90;999.90;;;;;;;;;;4994273;28;20694;-72
2022/01/10 12:07:42;;;;;;;1999.90;999.90;;;;;;;;;;4994306;28;20215;-72
2022/01/10 12:10:27;;;;;;;1999.90;999.90;;;;;;;;;;4994103;28;20215;-72
2022/01/10 12:13:13;;;;;;;1999.90;999.90;;;;;;;;;;4986674;28;20693;-72
2022/01/10 12:16:00;;;;;;;1999.90;999.90;;;;;;;;;;4987653;28;20282;-71
2022/01/10 12:18:46;;;;;;;1999.90;999.90;;;;;;;;;;4992883;28;20392;-72
2022/01/10 12:21:32;;;;;;;1999.90;999.90;;;;;;;;;;4991119;28;20484;-73
2022/01/10 12:24:17;;;;;;;1999.90;999.90;;;;;;;;;;4982240;28;20215;-72
2022/01/10 12:27:03;;;;;;;1999.90;999.90;;;;;;;;;;4982357;28;20706;-72
2022/01/10 12:29:47;;;;;;;1999.90;999.90;;;;;;;;;;4993886;28;20212;-72
2022/01/10 12:32:33;;;;;;;1999.90;999.90;;;;;;;;;;4981532;28;20358;-70
2022/01/10 12:35:19;;;;;;;1999.90;999.90;;;;;;;;;;4971106;28;20211;-72
2022/01/10 12:38:05;;;;;;;1999.90;999.90;;;;;;;;;;4966294;28;20224;-72
2022/01/10 12:40:51;;;;;;;1999.90;999.90;;;;;;;;;;4973645;28;20315;-72
2022/01/10 12:43:36;;;;;;;1999.90;999.90;;;;;;;;;;4981416;28;20218;-72
2022/01/10 12:46:21;;;;;;;1999.90;999.90;;;;;;;;;;4981256;28;20275;-72
2022/01/10 12:49:07;;;;;;;1999.90;999.90;;;;;;;;;;4983712;28;20286;-72
2022/01/10 12:51:54;;;;;;;1999.90;999.90;;;;;;;;;;4981766;28;20282;-72
2022/01/10 12:54:39;;;;;;;1999.90;999.90;;;;;;;;;;4984521;28;20211;-72
2022/01/10 12:57:24;;;;;;;1999.90;999.90;;;;;;;;;;4980458;28;20699;-72
2022/01/10 13:00:10;;;;;;;1999.90;999.90;;;;;;;;;;4975320;28;20211;-73
2022/01/10 13:02:55;;;;;;;1999.90;999.90;;;;;;;;;;4975366;28;20212;-73
2022/01/10 13:05:41;;;;;;;1999.90;999.90;;;;;;;;;;4972401;28;20340;-73
2022/01/10 13:08:28;;;;;;;1999.90;999.90;;;;;;;;;;4981914;28;20219;-71
2022/01/10 13:11:16;;;;;;;1999.90;999.90;;;;;;;;;;4973907;28;20742;-73
2022/01/10 13:14:08;;;;;;;1999.90;999.90;;;;;;;;;;4977885;28;20259;-72
2022/01/10 13:16:56;;;;;;;1999.90;999.90;;;;;;;;;;4954633;29;20216;-73
2022/01/10 13:19:44;;;;;;;1999.90;999.90;;;;;;;;;;4962465;28;20304;-72
2022/01/10 13:22:33;;;;;;;1999.90;999.90;;;;;;;;;;4970297;28;20617;-70
2022/01/10 13:25:19;;;;;;;1999.90;999.90;;;;;;;;;;4957063;28;20237;-72
2022/01/10 13:28:07;;;;;;;1999.90;999.90;;;;;;;;;;4970619;28;20266;-71
2022/01/10 13:30:55;;;;;;;1999.90;999.90;;;;;;;;;;4969898;28;20225;-71
2022/01/10 13:33:44;;;;;;;1999.90;999.90;;;;;;;;;;4968110;28;20228;-72
2022/01/10 13:36:42;;;;;;;1999.90;999.90;;;;;;;;;;4961308;28;20213;-73
2022/01/10 13:39:28;;;;;;;1999.90;999.90;;;;;;;;;;4970875;28;20220;-72
2022/01/10 13:42:15;;;;;;;1999.90;999.90;;;;;;;;;;4971418;28;20442;-72
2022/01/10 13:45:01;;;;;;;1999.90;999.90;;;;;;;;;;4971213;28;20223;-72
2022/01/10 13:47:57;;;;;;;1999.90;999.90;;;;;;;;;;4965159;28;20260;-72
2022/01/10 13:50:44;;;;;;;1999.90;999.90;;;;;;;;;;4955240;28;20224;-73
2022/01/10 13:53:29;;;;;;;1999.90;999.90;;;;;;;;;;4973829;28;20492;-72
2022/01/10 13:56:15;;;;;;;1999.90;999.90;;;;;;;;;;4960444;28;20220;-72
2022/01/10 13:59:03;;;;;;;1999.90;999.90;;;;;;;;;;4971460;28;20758;-71
2022/01/10 14:01:56;;;;;;;1999.90;999.90;;;;;;;;;;4964354;28;20223;-71
2022/01/10 14:04:41;;;;;;;1999.90;999.90;;;;;;;;;;4973691;28;20681;-71
2022/01/10 14:07:33;;;;;;;1999.90;999.90;;;;;;;;;;4972923;28;20207;-71
2022/01/10 14:10:18;;;;;;;1999.90;999.90;;;;;;;;;;4972982;28;20574;-70
2022/01/10 14:13:03;;;;;;;1999.90;999.90;;;;;;;;;;4972914;28;20204;-71
2022/01/10 14:15:49;;;;;;;1999.90;999.90;;;;;;;;;;4973463;28;20702;-70
2022/01/10 14:18:34;;;;;;;1999.90;999.90;;;;;;;;;;4977146;28;20212;-70
2022/01/10 14:21:19;;;;;;;1999.90;999.90;;;;;;;;;;4983410;28;20234;-71
2022/01/10 14:24:05;;;;;;;1999.90;999.90;;;;;;;;;;4996028;28;20215;-70
2022/01/10 14:26:50;;;;;;;1999.90;999.90;;;;;;;;;;4996271;28;20207;-70
2022/01/10 14:29:35;;;;;;;1999.90;999.90;;;;;;;;;;4995497;28;20206;-71
2022/01/10 14:32:21;;;;;;;1999.90;999.90;;;;;;;;;;4996148;28;20226;-70
2022/01/10 14:35:07;;;;;;;1999.90;999.90;;;;;;;;;;4996066;28;20203;-70
2022/01/10 14:37:52;;;;;;;1999.90;999.90;;;;;;;;;;4994955;28;20429;-70
2022/01/10 14:40:37;;;;;;;1999.90;999.90;;;;;;;;;;4995770;28;20211;-70
2022/01/10 14:43:22;;;;;;;1999.90;999.90;;;;;;;;;;4996049;28;20206;-71
2022/01/10 14:46:08;;;;;;;1999.90;999.90;;;;;;;;;;4996075;28;20214;-70
2022/01/10 14:48:54;;;;;;;1999.90;999.90;;;;;;;;;;4995593;28;20328;-71
2022/01/10 14:51:40;;;;;;;1999.90;999.90;;;;;;;;;;4995745;28;20358;-71
2022/01/10 14:54:25;;;;;;;1999.90;999.90;;;;;;;;;;4995686;28;20211;-71
2022/01/10 14:57:09;;;;;;;1999.90;999.90;;;;;;;;;;4996077;28;20334;-71
2022/01/10 14:59:55;;;;;;;1999.90;999.90;;;;;;;;;;4995531;28;20227;-71
2022/01/10 15:02:40;;;;;;;1999.90;999.90;;;;;;;;;;4995342;28;20239;-71
2022/01/10 15:05:26;;;;;;;1999.90;999.90;;;;;;;;;;4995745;28;20207;-70
2022/01/10 15:08:12;;;;;;;1999.90;999.90;;;;;;;;;;4995649;28;20211;-69
2022/01/10 15:10:57;;;;;;;1999.90;999.90;;;;;;;;;;4995543;28;20609;-69
2022/01/10 15:13:44;;;;;;;1999.90;999.90;;;;;;;;;;4995244;28;20693;-71
2022/01/10 15:16:28;;;;;;;1999.90;999.90;;;;;;;;;;4995555;28;20242;-70
2022/01/10 15:19:13;;;;;;;1999.90;999.90;;;;;;;;;;4987739;28;20215;-71
2022/01/10 15:22:00;;;;;;;1999.90;999.90;;;;;;;;;;4967739;28;20774;-70
2022/01/10 15:24:44;;;;;;;1999.90;999.90;;;;;;;;;;4972960;28;20212;-70
2022/01/10 15:27:30;;;;;;;1999.90;999.90;;;;;;;;;;4975231;28;20706;-70
2022/01/10 15:30:15;;;;;;;1999.90;999.90;;;;;;;;;;4973495;28;20212;-70
2022/01/10 15:33:00;;;;;;;1999.90;999.90;;;;;;;;;;4971526;28;20714;-70
2022/01/10 15:35:47;;;;;;;1999.90;999.90;;;;;;;;;;4975407;28;20235;-72